Time;durP1;ratioP1;P1;durP2;ratioP2;P2;SDS_P1;SDS_P2;PMS_P1;PMS_P2;Temp;Humidity;BMP_temperature;BMP_pressure;BME280_temperature;BME280_humidity;BME280_pressure;Samples;Min_cycle;Max_cycle;Signal;HPM_P1;HPM_P2
2023/02/19 00:01:34;;;;;;;4.30;1.20;;;;;;;8.85;81.06;101785.63;5028539;28;20088;-46
2023/02/19 00:04:21;;;;;;;7.10;1.77;;;;;;;8.86;81.18;101790.03;5028744;28;20478;-47
2023/02/19 00:06:48;;;;;;;5.53;1.88;;;;;;;8.86;81.16;101788.09;5028795;28;20472;-46
2023/02/19 00:09:17;;;;;;;8.60;1.20;;;;;;;8.86;81.37;101793.63;5028712;28;20045;-46
2023/02/19 00:11:45;;;;;;;8.20;1.95;;;;;;;8.85;81.41;101791.97;5034959;28;20124;-47
2023/02/19 00:14:19;;;;;;;6.70;1.75;;;;;;;8.86;81.58;101807.44;5028527;28;20099;-50
2023/02/19 00:16:46;;;;;;;3.83;1.10;;;;;;;8.85;81.62;101803.03;5028046;28;20046;-46
2023/02/19 00:19:16;;;;;;;1.58;1.00;;;;;;;8.84;81.70;101792.31;5027532;28;20052;-48
2023/02/19 00:21:44;;;;;;;6.00;1.13;;;;;;;8.82;81.81;101802.81;5028625;28;20063;-48
2023/02/19 00:24:12;;;;;;;4.00;1.45;;;;;;;8.77;81.90;101800.97;5028483;28;20099;-53
2023/02/19 00:26:40;;;;;;;6.60;1.20;;;;;;;8.73;81.99;101786.19;5029262;28;20047;-46
2023/02/19 00:29:11;;;;;;;6.05;0.98;;;;;;;8.68;81.98;101802.84;5028687;28;20088;-46
2023/02/19 00:31:39;;;;;;;9.65;2.80;;;;;;;8.62;82.23;101804.06;5028775;28;20049;-46
2023/02/19 00:34:06;;;;;;;8.77;1.58;;;;;;;8.58;82.36;101805.78;5032770;28;20045;-46
2023/02/19 00:36:36;;;;;;;6.45;1.20;;;;;;;8.55;82.42;101803.66;5028402;28;20068;-47
2023/02/19 00:39:05;;;;;;;4.72;1.55;;;;;;;8.52;82.56;101798.75;5028595;28;20067;-47
2023/02/19 00:41:34;;;;;;;5.30;1.35;;;;;;;8.52;82.73;101798.75;5028617;28;20132;-46
2023/02/19 00:44:04;;;;;;;4.45;0.98;;;;;;;8.52;82.92;101804.28;5028143;28;20053;-46
2023/02/19 00:46:37;;;;;;;5.28;0.80;;;;;;;8.54;82.97;101805.59;5028821;28;20069;-46
2023/02/19 00:49:05;;;;;;;5.82;1.63;;;;;;;8.56;83.11;101813.56;5028487;28;20041;-46
2023/02/19 00:51:35;;;;;;;4.20;1.20;;;;;;;8.56;83.04;101819.91;5027773;28;20478;-47
2023/02/19 00:54:02;;;;;;;4.72;1.67;;;;;;;8.58;82.98;101827.88;5028500;28;20048;-46
2023/02/19 00:56:29;;;;;;;2.70;1.40;;;;;;;8.57;83.22;101840.06;5019603;28;20095;-47
2023/02/19 00:58:56;;;;;;;6.38;1.23;;;;;;;8.60;83.18;101836.69;5028545;28;20056;-47
2023/02/19 01:01:23;;;;;;;3.65;0.90;;;;;;;8.59;83.23;101837.78;5028353;28;20112;-46
2023/02/19 01:03:50;;;;;;;3.85;1.13;;;;;;;8.59;83.32;101843.31;5010681;28;20511;-53
2023/02/19 01:06:19;;;;;;;6.68;1.58;;;;;;;8.61;83.46;101851.28;5027115;28;20133;-46
2023/02/19 01:08:46;;;;;;;7.38;1.15;;;;;;;8.60;83.50;101850.47;5026944;28;20037;-50
2023/02/19 01:11:13;;;;;;;12.43;1.17;;;;;;;8.60;83.51;101844.13;5034615;28;20049;-46
2023/02/19 01:13:41;;;;;;;3.13;0.73;;;;;;;8.58;83.51;101841.66;5028036;28;20050;-50
2023/02/19 01:16:20;;;;;;;1.33;0.70;;;;;;;8.57;83.64;101831.78;5028235;28;20054;-48
2023/02/19 01:18:48;;;;;;;5.40;1.17;;;;;;;8.56;83.64;101830.94;5028172;28;20450;-47
2023/02/19 01:21:18;;;;;;;5.07;1.08;;;;;;;8.56;83.70;101827.34;5027884;28;20049;-46
2023/02/19 01:23:46;;;;;;;3.00;0.75;;;;;;;8.52;83.68;101831.88;5027602;28;20517;-46
2023/02/19 01:26:22;;;;;;;1.95;0.60;;;;;;;8.49;83.56;101841.56;5028017;28;20034;-47
2023/02/19 01:28:48;;;;;;;4.85;1.45;;;;;;;8.47;83.81;101834.72;5027565;28;20068;-46
2023/02/19 01:31:21;;;;;;;4.20;1.17;;;;;;;8.46;83.77;101828.38;5030802;28;20045;-48
2023/02/19 01:33:52;;;;;;;6.03;1.13;;;;;;;8.47;83.88;101843.81;5036346;28;20139;-46
2023/02/19 01:36:20;;;;;;;5.15;1.00;;;;;;;8.47;83.79;101841.03;5031889;28;20059;-50
2023/02/19 01:38:47;;;;;;;14.50;1.85;;;;;;;8.47;83.78;101845.78;5031224;28;20403;-49
2023/02/19 01:41:16;;;;;;;12.68;2.47;;;;;;;8.45;83.91;101848.00;5030617;28;20136;-47
2023/02/19 01:44:11;;;;;;;6.75;1.83;;;;;;;8.40;84.05;101850.84;5013853;28;20049;-46
2023/02/19 01:46:41;;;;;;;6.45;1.88;;;;;;;8.31;83.97;101842.44;5013261;28;20689;-47
2023/02/19 01:49:08;;;;;;;10.35;2.13;;;;;;;8.24;84.12;101854.97;5031302;28;20079;-46
2023/02/19 01:51:38;;;;;;;7.72;1.60;;;;;;;8.19;84.29;101849.53;5031169;28;20052;-46
2023/02/19 01:54:09;;;;;;;10.60;2.42;;;;;;;8.14;84.31;101842.19;5031185;28;20457;-46
2023/02/19 01:56:39;;;;;;;7.10;1.30;;;;;;;8.10;84.49;101846.66;5031042;28;20057;-47
2023/02/19 01:59:06;;;;;;;5.32;1.38;;;;;;;8.09;84.84;101844.19;5024325;28;20053;-53
2023/02/19 02:01:37;;;;;;;8.32;1.90;;;;;;;8.09;84.80;101844.19;5030686;28;20059;-47
2023/02/19 02:04:06;;;;;;;6.45;2.10;;;;;;;8.08;84.96;101837.84;5031296;28;20037;-47
2023/02/19 02:06:38;;;;;;;6.03;1.67;;;;;;;8.09;84.94;101835.94;5030786;28;20037;-46
2023/02/19 02:11:52;;;;;;;5.75;1.48;;;;;;;8.08;85.02;101848.88;5037346;28;19925;-46
2023/02/19 02:14:24;;;;;;;7.75;2.88;;;;;;;8.09;85.01;101844.19;5028951;28;20435;-46
2023/02/19 02:17:27;;;;;;;5.15;1.08;;;;;;;8.05;85.11;101846.72;5019895;28;20095;-46
2023/02/19 02:20:13;;;;;;;3.63;1.13;;;;;;;8.02;85.15;101838.25;5016633;28;20064;-46
2023/02/19 02:22:58;;;;;;;3.40;1.15;;;;;;;7.97;85.22;101847.41;5030441;28;20407;-46
2023/02/19 02:25:47;;;;;;;2.70;1.17;;;;;;;7.91;85.35;101843.94;5030938;28;20054;-46
2023/02/19 02:28:23;;;;;;;7.28;2.30;;;;;;;7.87;85.44;101867.72;5030992;28;20132;-46
2023/02/19 02:30:55;;;;;;;3.53;1.00;;;;;;;7.84;85.55;101876.56;5026720;28;20058;-46
2023/02/19 02:33:35;;;;;;;;;;;;;;;7.83;85.59;101885.97;5033130;28;20063;-46
2023/02/19 02:36:11;;;;;;;5.07;1.02;;;;;;;7.85;85.54;101888.44;5017281;28;19928;-46
2023/02/19 02:38:41;;;;;;;11.07;3.75;;;;;;;7.84;85.54;101893.13;5030239;28;20049;-46
2023/02/19 02:41:09;;;;;;;5.93;1.02;;;;;;;7.84;85.66;101882.09;5030032;28;20045;-46
2023/02/19 02:43:36;;;;;;;18.73;2.65;;;;;;;7.83;85.64;101893.44;5029900;28;20060;-46
2023/02/19 02:46:03;;;;;;;3.95;0.98;;;;;;;7.79;85.68;101886.84;5030743;28;20052;-47
2023/02/19 02:48:52;;;;;;;9.00;1.50;;;;;;;7.76;85.84;101896.53;5011980;28;20061;-47
2023/02/19 02:51:27;;;;;;;5.90;1.48;;;;;;;7.73;85.71;101897.13;5030203;28;20041;-46
2023/02/19 02:56:50;;;;;;;5.90;1.85;;;;;;;7.68;85.93;101899.97;5012534;28;20396;-46
2023/02/19 02:59:24;;;;;;;6.15;1.58;;;;;;;7.66;85.90;101895.88;5029988;28;20042;-52
2023/02/19 03:02:09;;;;;;;5.80;1.30;;;;;;;7.62;85.93;101901.19;5064598;23;20056;-45
2023/02/19 03:04:36;;;;;;;10.60;2.10;;;;;;;7.59;85.98;101901.78;5049642;28;20045;-46
2023/02/19 03:07:08;;;;;;;12.13;3.35;;;;;;;7.59;86.10;101904.53;5048870;28;20053;-47
2023/02/19 03:09:40;;;;;;;13.95;3.25;;;;;;;7.60;86.12;101911.66;5050000;28;20498;-45
2023/02/19 03:20:47;;;;;;;12.80;2.72;;;;;;;7.55;86.24;101917.25;5049797;28;20049;-46
2023/02/19 03:23:17;;;;;;;6.78;1.42;;;;;;;7.54;86.20;101915.63;5048352;28;20055;-46
2023/02/19 03:26:02;;;;;;;9.80;2.47;;;;;;;7.53;86.33;101918.66;5049209;28;20029;-48
2023/02/19 03:31:21;;;;;;;6.13;1.30;;;;;;;7.47;86.33;101922.59;5049253;28;20385;-48
2023/02/19 03:33:56;;;;;;;5.35;1.40;;;;;;;7.44;86.62;101920.47;5052917;28;20040;-47
2023/02/19 03:36:24;;;;;;;7.97;1.48;;;;;;;7.42;86.61;101919.91;5038486;28;20045;-46
2023/02/19 03:38:59;;;;;;;6.70;2.00;;;;;;;7.39;86.61;101924.06;5049277;28;20048;-46
2023/02/19 03:41:35;;;;;;;4.30;1.40;;;;;;;7.35;86.58;101914.78;5048409;28;20136;-46
2023/02/19 03:44:37;;;;;;;6.47;1.70;;;;;;;7.34;86.61;101905.69;5048853;28;20044;-45
2023/02/19 03:47:17;;;;;;;12.50;2.10;;;;;;;7.33;86.89;101919.75;5049080;28;20049;-45
2023/02/19 03:49:55;;;;;;;11.95;3.03;;;;;;;7.31;86.89;101916.47;5048861;28;20063;-50
2023/02/19 03:52:37;;;;;;;21.08;5.78;;;;;;;7.31;86.96;101911.78;5049324;28;20049;-45
2023/02/19 03:55:30;;;;;;;7.43;1.73;;;;;;;7.31;86.98;101905.44;5048196;28;20033;-46
2023/02/19 03:58:20;;;;;;;9.05;2.28;;;;;;;7.28;87.16;101900.56;5047144;28;20056;-46
2023/02/19 04:01:12;;;;;;;15.75;4.82;;;;;;;7.25;87.11;101906.66;5038510;28;20119;-45
2023/02/19 04:03:55;;;;;;;14.57;3.15;;;;;;;7.24;87.27;101916.00;5035720;28;20037;-45
2023/02/19 04:06:29;;;;;;;12.35;3.47;;;;;;;7.22;87.22;101935.59;5048718;28;20055;-46
2023/02/19 04:09:00;;;;;;;11.70;3.42;;;;;;;7.23;87.39;101937.22;5048779;28;20056;-47
2023/02/19 04:11:29;;;;;;;8.70;2.28;;;;;;;7.22;87.61;101938.34;5054632;28;20041;-47
2023/02/19 04:14:14;;;;;;;14.57;3.05;;;;;;;7.23;87.62;101939.16;5047919;28;20059;-47
2023/02/19 04:16:46;;;;;;;6.80;2.00;;;;;;;7.23;87.71;101936.41;5036216;28;20047;-46
2023/02/19 04:19:18;;;;;;;7.32;1.67;;;;;;;7.25;87.93;101942.44;5048528;28;20443;-47
2023/02/19 04:21:46;;;;;;;6.30;2.22;;;;;;;7.24;87.93;101949.06;5048733;28;20045;-46
2023/02/19 04:24:20;;;;;;;10.13;1.90;;;;;;;7.27;88.16;101948.47;5048183;28;20073;-45
2023/02/19 04:26:48;;;;;;;9.02;1.55;;;;;;;7.27;88.14;101945.72;5048670;28;20061;-46
2023/02/19 04:29:14;;;;;;;8.77;1.58;;;;;;;7.26;88.24;101941.31;5048492;28;20048;-46
2023/02/19 04:31:41;;;;;;;5.82;1.33;;;;;;;7.26;88.24;101939.38;5045877;28;20045;-46
2023/02/19 04:34:08;;;;;;;8.90;2.25;;;;;;;7.25;88.36;101943.25;5049752;28;20124;-48
2023/02/19 04:36:35;;;;;;;6.05;2.40;;;;;;;7.23;88.42;101937.22;5038948;28;20045;-49
2023/02/19 04:39:02;;;;;;;9.55;2.63;;;;;;;7.24;88.72;101949.88;5048449;28;20040;-50
2023/02/19 04:41:29;;;;;;;10.48;2.30;;;;;;;7.23;88.76;101958.44;5048738;28;20045;-46
2023/02/19 04:43:55;;;;;;;12.07;2.50;;;;;;;7.21;88.83;101958.72;5048093;28;20045;-47
2023/02/19 04:46:22;;;;;;;10.95;2.63;;;;;;;7.20;89.13;101954.31;5048092;28;20135;-47
2023/02/19 04:48:50;;;;;;;8.25;1.85;;;;;;;7.23;89.19;101955.69;5047366;28;20057;-47
2023/02/19 04:51:17;;;;;;;12.63;2.10;;;;;;;7.25;89.32;101958.97;5048478;28;20080;-45
2023/02/19 04:53:44;;;;;;;6.50;1.38;;;;;;;7.27;89.39;101962.25;5048095;28;20080;-51
2023/02/19 04:56:13;;;;;;;12.65;3.67;;;;;;;7.30;89.37;101970.75;5048132;28;20033;-45
2023/02/19 04:58:41;;;;;;;8.95;1.42;;;;;;;7.33;89.59;101970.16;5048065;28;20565;-47
2023/02/19 05:01:08;;;;;;;8.43;2.92;;;;;;;7.39;89.57;101962.66;5047924;28;20401;-47
2023/02/19 05:03:36;;;;;;;6.25;1.33;;;;;;;7.42;89.58;101970.31;5047186;28;20076;-47
2023/02/19 05:06:05;;;;;;;3.58;1.00;;;;;;;7.44;89.77;101959.81;5049791;28;20051;-46
2023/02/19 05:08:32;;;;;;;5.85;1.65;;;;;;;7.47;89.85;101958.41;5052119;28;20041;-46
2023/02/19 05:11:00;;;;;;;2.72;1.20;;;;;;;7.46;89.88;101949.34;5057983;28;20040;-46
2023/02/19 05:13:28;;;;;;;5.95;1.15;;;;;;;7.49;89.95;101951.53;5051960;28;20037;-46
2023/02/19 05:15:59;;;;;;;4.10;1.05;;;;;;;7.50;89.95;101941.28;5052144;28;20076;-47
2023/02/19 05:18:26;;;;;;;3.35;1.10;;;;;;;7.52;90.05;101934.38;5051801;28;20045;-45
2023/02/19 05:20:57;;;;;;;7.90;1.17;;;;;;;7.55;90.06;101921.94;5020116;28;20056;-46
2023/02/19 05:23:25;;;;;;;6.00;1.50;;;;;;;7.56;90.23;101932.69;5050807;28;20053;-45
2023/02/19 05:25:52;;;;;;;7.60;1.48;;;;;;;7.58;90.24;101926.84;5051511;28;20055;-46
2023/02/19 05:28:27;;;;;;;5.63;1.30;;;;;;;7.61;90.37;101931.78;5051543;28;20509;-51
2023/02/19 05:30:56;;;;;;;7.70;1.05;;;;;;;7.61;90.29;101932.59;5051366;28;20106;-46
2023/02/19 05:33:24;;;;;;;10.07;1.75;;;;;;;7.63;90.47;101935.88;5054850;28;20045;-47
2023/02/19 05:35:54;;;;;;;8.27;3.05;;;;;;;7.62;90.45;101936.19;5033281;28;20081;-45
2023/02/19 05:38:22;;;;;;;7.85;1.25;;;;;;;7.62;90.61;101920.47;5025376;28;20059;-45
2023/02/19 05:40:49;;;;;;;10.18;3.80;;;;;;;7.60;90.78;101906.16;5051323;28;20068;-45
2023/02/19 05:43:17;;;;;;;8.50;1.23;;;;;;;7.61;90.82;101898.72;5051298;28;20103;-49
2023/02/19 05:45:44;;;;;;;6.20;1.60;;;;;;;7.60;90.83;101906.16;5051531;28;20136;-45
2023/02/19 05:48:11;;;;;;;10.80;1.90;;;;;;;7.60;90.87;101903.41;5051300;28;20148;-46
2023/02/19 05:50:38;;;;;;;7.65;2.53;;;;;;;7.60;91.04;101902.59;5051605;28;20391;-46
2023/02/19 05:53:05;;;;;;;11.25;1.80;;;;;;;7.59;91.08;101911.97;5050465;28;20044;-46
2023/02/19 05:55:35;;;;;;;13.90;1.65;;;;;;;7.58;91.25;101899.28;5038443;28;20044;-45
2023/02/19 05:58:02;;;;;;;10.70;2.38;;;;;;;7.57;91.36;101906.75;5033286;28;20053;-48
2023/02/19 06:00:31;;;;;;;6.53;1.67;;;;;;;7.56;91.53;101907.06;5051782;28;20049;-45
2023/02/19 06:02:58;;;;;;;5.68;1.60;;;;;;;7.55;91.62;101908.97;5032817;28;20088;-46
2023/02/19 06:05:25;;;;;;;12.60;2.05;;;;;;;7.54;91.67;101892.75;5050752;28;20040;-45
2023/02/19 06:07:51;;;;;;;11.48;1.77;;;;;;;7.53;91.86;101880.91;5050786;28;20059;-45
2023/02/19 06:10:19;;;;;;;9.32;2.00;;;;;;;7.51;91.85;101872.13;5052207;28;20211;-46
2023/02/19 06:12:46;;;;;;;4.50;1.27;;;;;;;7.49;91.99;101863.34;5054542;28;20131;-47
2023/02/19 06:15:13;;;;;;;6.97;3.72;;;;;;;7.47;92.07;101870.25;5050600;28;20136;-46
2023/02/19 06:17:39;;;;;;;7.95;1.52;;;;;;;7.46;92.32;101868.63;5049368;28;20063;-48
2023/02/19 06:20:07;;;;;;;5.40;1.33;;;;;;;7.47;92.34;101873.00;5050749;28;20045;-47
2023/02/19 06:22:33;;;;;;;2.38;1.13;;;;;;;7.46;92.42;101860.34;5050526;28;20106;-45
2023/02/19 06:25:00;;;;;;;4.25;1.20;;;;;;;7.45;92.56;101883.50;5050439;28;20537;-46
2023/02/19 06:27:27;;;;;;;7.78;1.77;;;;;;;7.44;92.68;101849.63;5050805;28;20040;-50
2023/02/19 06:29:54;;;;;;;4.65;1.35;;;;;;;7.45;92.57;101845.75;5044482;28;20045;-45
2023/02/19 06:32:21;;;;;;;5.57;1.17;;;;;;;7.45;92.72;101850.44;5053954;28;20049;-45
2023/02/19 06:34:48;;;;;;;5.15;1.40;;;;;;;7.44;92.89;101855.13;5055737;28;20045;-45
2023/02/19 06:37:14;;;;;;;5.70;1.50;;;;;;;7.44;92.98;101854.34;5050435;28;20041;-46
2023/02/19 06:39:44;;;;;;;12.30;2.15;;;;;;;7.43;93.06;101850.75;5050631;28;20095;-45
2023/02/19 06:42:11;;;;;;;4.40;1.40;;;;;;;7.42;92.87;101846.34;5050325;28;20051;-50
2023/02/19 06:44:37;;;;;;;5.25;1.45;;;;;;;7.43;93.18;101853.50;5050456;28;20144;-45
2023/02/19 06:47:04;;;;;;;3.90;1.08;;;;;;;7.42;93.15;101846.34;5049210;28;20075;-45
2023/02/19 06:49:31;;;;;;;2.97;1.10;;;;;;;7.42;93.46;101840.84;5050296;28;20128;-45
2023/02/19 06:51:59;;;;;;;5.13;1.30;;;;;;;7.42;93.44;101851.84;5050188;28;20124;-46
2023/02/19 06:54:26;;;;;;;3.75;0.90;;;;;;;7.42;93.82;101857.38;5049817;28;20107;-50
2023/02/19 06:56:53;;;;;;;5.05;1.02;;;;;;;7.43;93.52;101870.03;5050071;28;21160;-46
2023/02/19 06:59:19;;;;;;;3.70;0.77;;;;;;;7.44;93.53;101874.41;5049998;28;20110;-45
2023/02/19 07:01:46;;;;;;;2.20;0.80;;;;;;;7.44;93.72;101871.66;5033541;28;20128;-45
2023/02/19 07:04:13;;;;;;;2.03;0.55;;;;;;;7.45;93.82;101872.47;5040446;28;20076;-46
2023/02/19 07:06:40;;;;;;;1.67;0.50;;;;;;;7.45;93.86;101869.72;5049704;28;20522;-46
2023/02/19 07:09:08;;;;;;;0.90;0.40;;;;;;;7.46;93.95;101863.13;5049802;28;20140;-46
2023/02/19 07:11:37;;;;;;;1.75;0.60;;;;;;;7.46;94.13;101871.38;5055681;28;20486;-46
2023/02/19 07:14:07;;;;;;;1.85;0.63;;;;;;;7.47;94.29;101882.09;5049698;28;20115;-49
2023/02/19 07:16:34;;;;;;;3.53;0.32;;;;;;;7.49;94.19;101890.06;5049880;28;20131;-47
2023/02/19 07:19:02;;;;;;;1.08;0.60;;;;;;;7.48;94.12;101903.03;5049675;28;20048;-45
2023/02/19 07:21:29;;;;;;;1.55;0.30;;;;;;;7.49;94.00;101901.91;5035369;28;20072;-45
2023/02/19 07:23:56;;;;;;;2.83;0.20;;;;;;;7.51;94.54;101899.69;5043116;28;20525;-45
2023/02/19 07:26:23;;;;;;;1.67;0.40;;;;;;;7.51;94.50;101899.69;5049582;28;20045;-45
2023/02/19 07:28:51;;;;;;;2.80;0.38;;;;;;;7.53;94.42;101902.94;5048866;28;20491;-47
2023/02/19 07:31:19;;;;;;;2.50;0.40;;;;;;;7.54;94.64;101910.13;5049281;28;20049;-45
2023/02/19 07:33:47;;;;;;;2.38;0.30;;;;;;;7.54;94.60;101910.13;5036825;28;20064;-48
2023/02/19 07:36:16;;;;;;;6.40;0.60;;;;;;;7.56;94.71;101913.38;5046696;28;20136;-46
2023/02/19 07:38:43;;;;;;;2.75;0.43;;;;;;;7.56;94.71;101913.38;5044040;28;20509;-48
2023/02/19 07:41:10;;;;;;;1.85;0.20;;;;;;;7.57;94.77;101923.28;5040487;28;20068;-50
2023/02/19 07:43:38;;;;;;;0.20;0.20;;;;;;;7.57;94.79;101920.53;5044567;28;20055;-47
2023/02/19 07:46:10;;;;;;;0.55;0.15;;;;;;;7.57;94.70;101926.03;5048463;28;20123;-48
2023/02/19 07:48:41;;;;;;;1.20;0.17;;;;;;;7.57;94.65;101920.53;5048963;28;20052;-48
2023/02/19 07:51:12;;;;;;;3.20;1.17;;;;;;;7.58;94.71;101935.94;5040585;28;20096;-46
2023/02/19 07:53:39;;;;;;;0.52;0.25;;;;;;;7.58;94.79;101933.19;5047848;28;20128;-50
2023/02/19 07:56:07;;;;;;;0.65;0.20;;;;;;;7.60;94.72;101939.22;5046550;28;20443;-46
2023/02/19 07:58:34;;;;;;;1.58;0.38;;;;;;;7.61;94.71;101929.84;5048469;28;20041;-48
2023/02/19 08:01:10;;;;;;;3.08;0.40;;;;;;;7.62;94.81;101923.22;5041438;28;20141;-47
2023/02/19 08:03:37;;;;;;;0.20;0.17;;;;;;;7.63;94.73;101930.38;5047767;28;20103;-46
2023/02/19 08:06:05;;;;;;;1.48;0.40;;;;;;;7.63;94.60;101937.81;5048933;28;20040;-48
2023/02/19 08:08:32;;;;;;;2.67;0.30;;;;;;;7.62;94.87;101927.91;5037099;28;20124;-49
2023/02/19 08:13:50;;;;;;;0.43;0.20;;;;;;;7.64;94.73;101932.03;5048365;28;20053;-48
2023/02/19 08:16:18;;;;;;;0.32;0.20;;;;;;;7.66;94.90;101935.28;5048373;28;20041;-50
2023/02/19 08:18:59;;;;;;;1.55;0.25;;;;;;;7.67;94.89;101938.88;5045061;28;20048;-47
2023/02/19 08:21:26;;;;;;;1.33;0.22;;;;;;;7.68;94.74;101933.06;5048194;28;20068;-48
2023/02/19 08:23:53;;;;;;;0.47;0.32;;;;;;;7.69;94.81;101942.97;5047934;28;20049;-46
2023/02/19 08:26:20;;;;;;;1.73;0.55;;;;;;;7.71;94.73;101945.41;5048633;28;20047;-47
2023/02/19 08:28:47;;;;;;;0.40;0.20;;;;;;;7.72;95.00;101947.91;5044489;28;20045;-47
2023/02/19 08:31:14;;;;;;;5.00;1.27;;;;;;;7.72;95.04;101945.13;5040519;28;20123;-45
2023/02/19 08:33:41;;;;;;;0.73;0.40;;;;;;;7.72;95.00;101939.63;5046533;28;20433;-45
2023/02/19 08:36:09;;;;;;;0.30;0.20;;;;;;;7.74;95.05;101944.81;5048440;28;20126;-47
2023/02/19 08:38:37;;;;;;;1.45;0.20;;;;;;;7.73;94.96;101935.72;5048428;28;20041;-45
2023/02/19 08:41:09;;;;;;;0.68;0.60;;;;;;;7.75;95.01;101932.69;5033244;28;20040;-47
2023/02/19 08:43:37;;;;;;;2.45;0.45;;;;;;;7.75;95.26;101928.00;5052346;28;20033;-45
2023/02/19 08:46:05;;;;;;;2.42;0.60;;;;;;;7.75;94.76;101905.97;5051463;28;20073;-52
2023/02/19 08:48:33;;;;;;;5.35;0.68;;;;;;;7.77;95.22;101913.91;5051894;28;20037;-45
2023/02/19 08:51:02;;;;;;;2.03;0.30;;;;;;;7.78;95.21;101927.38;5034289;28;20569;-50
2023/02/19 08:53:31;;;;;;;0.68;0.40;;;;;;;7.78;95.23;101910.84;5052340;28;20099;-45
2023/02/19 08:55:58;;;;;;;1.15;0.60;;;;;;;7.79;95.20;101906.97;5052042;28;20045;-45
2023/02/19 08:58:25;;;;;;;0.70;0.55;;;;;;;7.82;95.35;101905.56;5052225;28;20043;-45
2023/02/19 09:00:52;;;;;;;1.17;0.50;;;;;;;7.80;95.35;101903.13;5051963;28;20049;-45
2023/02/19 09:03:19;;;;;;;0.70;0.57;;;;;;;7.81;95.46;101904.75;5050913;28;20041;-45
2023/02/19 09:05:49;;;;;;;2.10;0.65;;;;;;;7.82;95.46;101914.66;5052534;28;20388;-45
2023/02/19 09:08:16;;;;;;;1.08;0.40;;;;;;;7.82;95.29;101906.41;5034007;28;20049;-45
2023/02/19 09:10:42;;;;;;;0.35;0.30;;;;;;;7.82;95.42;101917.41;5056138;28;20044;-51
2023/02/19 09:13:09;;;;;;;0.35;0.35;;;;;;;7.84;95.69;101919.88;5045922;28;20144;-45
2023/02/19 09:15:37;;;;;;;1.05;0.40;;;;;;;7.86;95.50;101914.91;5050695;28;20068;-46
2023/02/19 09:18:04;;;;;;;0.80;0.50;;;;;;;7.87;95.50;101914.59;5052070;28;20052;-52
2023/02/19 09:20:31;;;;;;;0.90;0.20;;;;;;;7.89;95.58;101923.38;5044216;28;20067;-51
2023/02/19 09:22:58;;;;;;;0.30;0.20;;;;;;;7.92;95.56;101914.50;5051179;28;20099;-46
2023/02/19 09:25:25;;;;;;;0.30;0.30;;;;;;;7.96;95.62;101917.50;5051326;28;20045;-45
2023/02/19 09:27:55;;;;;;;0.70;0.20;;;;;;;7.98;95.50;101918.00;5051639;28;20509;-45
2023/02/19 09:30:22;;;;;;;0.38;0.25;;;;;;;8.02;95.57;101915.47;5051705;28;20055;-49
2023/02/19 09:32:49;;;;;;;1.35;0.40;;;;;;;8.06;95.56;101922.03;5051244;28;20560;-46
2023/02/19 09:35:16;;;;;;;1.05;0.20;;;;;;;8.12;95.51;101938.22;5039917;28;20095;-53
2023/02/19 09:37:43;;;;;;;2.35;0.55;;;;;;;8.18;95.29;101930.66;5050326;28;20045;-47
2023/02/19 09:40:11;;;;;;;0.28;0.22;;;;;;;8.27;95.30;101928.88;5051285;28;20549;-46
2023/02/19 09:42:41;;;;;;;0.93;0.30;;;;;;;8.35;95.10;101919.91;5033513;28;20518;-48
2023/02/19 09:45:18;;;;;;;0.57;0.20;;;;;;;8.42;95.08;101931.38;5032953;28;20568;-47
2023/02/19 09:47:46;;;;;;;0.45;0.10;;;;;;;8.48;95.03;101936.53;5050544;28;20564;-45
2023/02/19 09:50:18;;;;;;;0.68;0.15;;;;;;;8.53;94.87;101952.16;5050555;28;20491;-46
2023/02/19 09:52:58;;;;;;;2.40;0.30;;;;;;;8.55;94.87;101944.44;5049985;28;20231;-46
2023/02/19 09:55:45;;;;;;;0.47;0.30;;;;;;;8.55;94.86;101952.72;5050213;28;20041;-47
2023/02/19 09:58:32;;;;;;;2.55;0.10;;;;;;;8.55;94.88;101958.22;5050494;28;20052;-46
2023/02/19 10:01:02;;;;;;;0.50;0.10;;;;;;;8.58;94.87;101950.16;5049542;28;20111;-47
2023/02/19 10:03:34;;;;;;;1.30;0.32;;;;;;;8.64;94.87;101956.41;5031204;28;20397;-48
2023/02/19 10:06:05;;;;;;;0.30;0.20;;;;;;;8.72;94.92;101946.59;5051219;28;20398;-46
2023/02/19 10:08:36;;;;;;;1.48;0.30;;;;;;;8.78;94.83;101945.38;5038079;28;20052;-53
2023/02/19 10:11:05;;;;;;;0.65;0.40;;;;;;;8.81;94.64;101951.13;5050717;28;20065;-48
2023/02/19 10:13:40;;;;;;;0.10;0.10;;;;;;;8.82;94.49;101947.22;5048683;28;20446;-46
2023/02/19 10:16:15;;;;;;;0.15;0.10;;;;;;;8.82;94.51;101958.28;5047009;28;20132;-48
2023/02/19 10:18:44;;;;;;;1.25;0.60;;;;;;;8.81;94.29;101951.13;5046771;28;20136;-51
2023/02/19 10:21:20;;;;;;;2.55;0.40;;;;;;;8.83;94.37;101950.81;5040320;28;20055;-49
2023/02/19 10:23:56;;;;;;;1.17;0.50;;;;;;;8.85;94.22;101952.16;5039342;28;20586;-46
2023/02/19 10:26:23;;;;;;;1.63;0.32;;;;;;;8.88;94.20;101940.50;5043752;28;20053;-45
2023/02/19 10:28:52;;;;;;;1.77;0.40;;;;;;;8.91;94.19;101950.94;5042042;28;20618;-56
2023/02/19 10:31:22;;;;;;;1.80;0.45;;;;;;;8.94;93.97;101955.84;5046737;28;20136;-46
2023/02/19 10:33:53;;;;;;;0.35;0.15;;;;;;;8.94;93.87;101955.84;5043822;28;20511;-46
2023/02/19 10:36:31;;;;;;;0.20;0.20;;;;;;;8.94;93.88;101961.38;5048423;28;20078;-54
2023/02/19 10:39:00;;;;;;;1.02;0.28;;;;;;;8.97;93.82;101955.25;5043468;28;20038;-46
2023/02/19 10:41:28;;;;;;;4.63;0.60;;;;;;;9.04;93.67;101957.59;5044773;28;20041;-46
2023/02/19 10:43:55;;;;;;;3.22;0.55;;;;;;;9.12;93.51;101954.13;5039719;28;20132;-46
2023/02/19 10:46:26;;;;;;;1.10;0.68;;;;;;;9.18;93.47;101962.03;5043234;28;20044;-48
2023/02/19 10:49:00;;;;;;;2.88;0.57;;;;;;;9.26;93.31;101965.19;5048073;28;20088;-47
2023/02/19 10:51:39;;;;;;;2.15;0.60;;;;;;;9.32;93.07;101961.22;5045061;28;20041;-46
2023/02/19 10:54:23;;;;;;;1.55;0.60;;;;;;;9.33;93.06;101949.00;5039247;28;20037;-47
2023/02/19 10:56:50;;;;;;;2.83;0.50;;;;;;;9.32;92.72;101945.41;5045063;28;20099;-46
2023/02/19 10:59:17;;;;;;;0.82;0.40;;;;;;;9.29;92.68;101956.28;5044818;28;20048;-45
2023/02/19 11:01:57;;;;;;;3.22;0.80;;;;;;;9.27;92.46;101958.53;5027938;28;20058;-47
2023/02/19 11:04:34;;;;;;;1.63;0.60;;;;;;;9.24;92.57;101973.78;5041828;28;20057;-46
2023/02/19 11:07:15;;;;;;;2.70;0.47;;;;;;;9.19;92.43;101979.41;5035129;28;20034;-49
2023/02/19 11:09:45;;;;;;;4.30;0.50;;;;;;;9.19;92.32;101965.59;5045859;28;20144;-47
2023/02/19 11:12:22;;;;;;;3.25;0.73;;;;;;;9.19;92.24;101960.06;5050637;28;20084;-47
2023/02/19 11:14:49;;;;;;;0.75;0.63;;;;;;;9.23;92.28;101963.03;5045067;28;20063;-49
2023/02/19 11:17:25;;;;;;;0.57;0.30;;;;;;;9.24;92.00;101964.69;5041473;28;20064;-47
2023/02/19 11:19:55;;;;;;;1.10;0.68;;;;;;;9.24;91.87;101959.94;5038832;28;20052;-48
2023/02/19 11:22:38;;;;;;;3.17;0.50;;;;;;;9.29;91.82;101954.34;5036967;28;20046;-45
2023/02/19 11:25:14;;;;;;;1.50;0.60;;;;;;;9.35;91.71;101961.38;5047287;28;20135;-45
2023/02/19 11:28:21;;;;;;;1.75;0.60;;;;;;;9.37;91.58;101948.06;5049605;28;20052;-48
2023/02/19 11:30:51;;;;;;;2.70;0.43;;;;;;;9.44;91.57;101933.84;5041425;28;20081;-48
2023/02/19 11:33:22;;;;;;;4.10;0.80;;;;;;;9.55;91.36;101938.06;5051532;28;20088;-46
2023/02/19 11:36:27;;;;;;;1.60;0.30;;;;;;;9.68;91.35;101937.22;5043237;28;20064;-53
2023/02/19 11:38:58;;;;;;;1.48;0.73;;;;;;;9.77;90.98;101940.84;5041489;28;20049;-47
2023/02/19 11:41:46;;;;;;;2.22;0.73;;;;;;;9.81;90.89;101950.19;5049211;28;20212;-47
2023/02/19 11:44:38;;;;;;;1.90;0.88;;;;;;;9.86;90.70;101950.06;5048899;28;20053;-48
2023/02/19 11:47:17;;;;;;;2.28;0.73;;;;;;;9.89;90.66;101938.38;5045807;28;20079;-47
2023/02/19 11:49:58;;;;;;;2.53;0.90;;;;;;;9.92;90.43;101946.06;5036905;28;20499;-45
2023/02/19 11:52:41;;;;;;;5.03;0.77;;;;;;;9.95;90.33;101939.91;5047877;28;20131;-49
2023/02/19 11:55:18;;;;;;;4.35;0.82;;;;;;;9.98;90.03;101936.50;5049008;28;20060;-51
2023/02/19 11:58:29;;;;;;;3.55;0.73;;;;;;;9.99;89.99;101938.16;5031113;28;20056;-48
2023/02/19 12:01:16;;;;;;;3.72;0.63;;;;;;;10.04;89.79;101929.72;5031527;28;20056;-49
2023/02/19 12:04:01;;;;;;;1.65;0.77;;;;;;;10.13;89.65;101922.34;5007873;28;20151;-49
2023/02/19 12:06:54;;;;;;;1.95;0.50;;;;;;;10.22;89.07;101914.91;5047741;28;20043;-44
2023/02/19 12:09:47;;;;;;;4.18;0.55;;;;;;;10.32;88.74;101902.78;5048133;28;20059;-46
2023/02/19 12:12:46;;;;;;;7.45;0.75;;;;;;;10.42;88.79;101898.94;5055014;28;20049;-45